Piseco, New York
Current Conditions -  °F | °C
As of 3:15 PM on Saturday 25 Oct 2014 (Local Time) from KNY0 Reporting Station
Broken Clouds Broken Clouds  
Wind Chill: 60°   Ceiling: 3900
Heat Index: 60°   Visibility: 10mi
Dew Point: 45°   Wind: 12mph
Humidity: 58%   Direction: 240°WSW
Pressure: 29.63"   Gusts: NA
Location:  43.45°N, 74.52°W
Report Text: KNY0 251915Z AUTO 24010KT 10SM BKN039 15/07 A2963 RMK AO2 T01530070
Loading
Personal Weather Stations






























Interactive Weather Map
Tropical Storm Tracking
New forecast layout! Learn more

10-Day Weather Forecast

Advertisements
Track Severe Weather on mobile